Time;durP1;ratioP1;P1;durP2;ratioP2;P2;SDS_P1;SDS_P2;PMS_P1;PMS_P2;Temp;Humidity;BMP_temperature;BMP_pressure;BME280_temperature;BME280_humidity;BME280_pressure;Samples;Min_cycle;Max_cycle;Signal;HPM_P1;HPM_P2
2021/12/14 00:02:01;;;;;;;8.83;7.53;;;11.40;97.60;;;;;;948771;149;27304;-74
2021/12/14 00:04:29;;;;;;;10.03;7.40;;;11.40;97.70;;;;;;956626;148;27295;-74
2021/12/14 00:06:54;;;;;;;8.30;7.30;;;11.40;97.70;;;;;;959678;148;27459;-74
2021/12/14 00:09:26;;;;;;;8.87;7.47;;;11.40;97.70;;;;;;949813;150;27386;-74
2021/12/14 00:12:06;;;;;;;8.57;7.60;;;11.40;97.80;;;;;;945160;150;27354;-74
2021/12/14 00:17:06;;;;;;;8.73;7.53;;;11.40;97.60;;;;;;946644;148;27398;-74
2021/12/14 00:19:33;;;;;;;7.73;7.03;;;11.30;97.80;;;;;;950089;150;27312;-74
2021/12/14 00:22:06;;;;;;;10.33;8.30;;;11.30;97.60;;;;;;947961;150;27244;-74
2021/12/14 00:24:26;;;;;;;9.17;8.23;;;11.30;97.60;;;;;;939682;151;27352;-74
2021/12/14 00:26:54;;;;;;;7.70;7.00;;;11.30;97.70;;;;;;945448;148;27368;-74
2021/12/14 00:29:22;;;;;;;8.57;7.23;;;11.30;97.70;;;;;;944689;150;27352;-74
2021/12/14 00:31:49;;;;;;;8.53;7.20;;;11.20;97.80;;;;;;957599;148;27299;-74
2021/12/14 00:34:22;;;;;;;7.63;6.93;;;11.20;97.90;;;;;;950345;148;27347;-74
2021/12/14 00:36:42;;;;;;;8.23;7.40;;;11.20;97.90;;;;;;948918;151;27276;-74
2021/12/14 00:39:08;;;;;;;7.97;7.27;;;11.20;98.00;;;;;;942368;148;27406;-74
2021/12/14 00:41:35;;;;;;;7.93;6.90;;;11.20;98.00;;;;;;941136;151;27247;-74
2021/12/14 00:44:02;;;;;;;7.90;7.10;;;11.20;98.10;;;;;;942278;151;27286;-74
2021/12/14 00:46:28;;;;;;;7.27;6.57;;;11.20;98.10;;;;;;941595;152;27318;-74
2021/12/14 00:48:55;;;;;;;7.20;6.50;;;11.20;98.10;;;;;;941912;151;27298;-74
2021/12/14 00:51:26;;;;;;;7.80;7.00;;;11.20;98.10;;;;;;941924;152;27258;-74
2021/12/14 00:53:48;;;;;;;7.73;7.03;;;11.20;98.10;;;;;;939189;151;27281;-74
2021/12/14 00:56:15;;;;;;;7.47;6.63;;;11.20;98.10;;;;;;941245;151;27305;-74
2021/12/14 00:58:41;;;;;;;7.83;6.50;;;11.20;98.10;;;;;;940503;152;27224;-74
2021/12/14 01:01:13;;;;;;;6.30;5.80;;;11.20;98.10;;;;;;941098;152;27746;-74
2021/12/14 01:03:40;;;;;;;7.10;5.87;;;11.20;98.10;;;;;;937481;149;27689;-74
2021/12/14 01:06:10;;;;;;;6.33;5.73;;;11.20;98.10;;;;;;941384;152;27305;-74
2021/12/14 01:08:36;;;;;;;6.10;5.50;;;11.20;98.10;;;;;;941888;149;27269;-74
2021/12/14 01:11:05;;;;;;;6.20;5.33;;;11.20;98.10;;;;;;941795;151;27386;-74
2021/12/14 01:13:33;;;;;;;5.23;4.73;;;11.20;98.10;;;;;;938485;152;27387;-74
2021/12/14 01:16:19;;;;;;;7.67;5.27;;;11.20;98.10;;;;;;942606;149;27334;-74
2021/12/14 01:18:48;;;;;;;5.53;5.03;;;11.20;98.00;;;;;;940775;152;27272;-74
2021/12/14 01:21:46;;;;;;;5.97;5.47;;;11.20;98.00;;;;;;929921;150;27336;-74
2021/12/14 01:24:03;;;;;;;5.30;4.77;;;11.20;98.00;;;;;;957851;149;27400;-74
2021/12/14 01:26:22;;;;;;;4.33;3.93;;;11.20;97.90;;;;;;939985;152;27247;-74
2021/12/14 01:28:49;;;;;;;5.73;4.70;;;11.20;98.00;;;;;;940495;149;27381;-74
2021/12/14 01:31:21;;;;;;;5.30;4.47;;;11.20;98.00;;;;;;942402;150;27300;-73
2021/12/14 01:33:42;;;;;;;4.70;4.30;;;11.10;98.00;;;;;;939612;149;27340;-73
2021/12/14 01:36:23;;;;;;;4.70;4.30;;;11.20;98.00;;;;;;941993;152;28193;-73
2021/12/14 01:38:45;;;;;;;4.60;4.20;;;11.20;98.00;;;;;;940194;149;27388;-73
2021/12/14 01:41:05;;;;;;;4.83;4.43;;;11.20;98.10;;;;;;941148;149;27359;-73
2021/12/14 01:43:46;;;;;;;7.13;4.93;;;11.20;98.10;;;;;;938161;152;27347;-74
2021/12/14 01:46:21;;;;;;;3.77;3.47;;;11.20;98.10;;;;;;941336;152;27230;-74
2021/12/14 01:48:48;;;;;;;4.60;4.20;;;11.20;98.10;;;;;;939175;152;27318;-74
2021/12/14 01:51:14;;;;;;;5.10;4.60;;;11.20;98.10;;;;;;940269;152;27589;-74
2021/12/14 01:53:41;;;;;;;5.37;3.83;;;11.20;98.10;;;;;;941499;152;27285;-74
2021/12/14 01:56:08;;;;;;;4.00;3.60;;;11.20;98.10;;;;;;941636;152;27337;-74
2021/12/14 01:58:34;;;;;;;4.00;3.70;;;11.20;98.10;;;;;;941982;151;27377;-73
2021/12/14 02:01:04;;;;;;;5.40;4.90;;;11.20;98.40;;;;;;942149;149;27377;-73
2021/12/14 02:03:30;;;;;;;4.03;3.63;;;11.30;98.10;;;;;;940690;149;27299;-73
2021/12/14 02:05:57;;;;;;;4.93;4.53;;;11.30;98.00;;;;;;940994;150;27285;-73
2021/12/14 02:08:23;;;;;;;5.67;4.70;;;11.30;97.90;;;;;;942541;150;27413;-74
2021/12/14 02:10:50;;;;;;;4.37;4.07;;;11.30;97.90;;;;;;940562;151;27330;-74
2021/12/14 02:13:25;;;;;;;5.33;4.83;;;11.30;97.90;;;;;;940718;151;27436;-74
2021/12/14 02:15:52;;;;;;;5.03;4.57;;;11.30;97.90;;;;;;943690;149;27245;-74
2021/12/14 02:18:18;;;;;;;5.13;4.63;;;11.30;97.80;;;;;;942129;149;27469;-74
2021/12/14 02:20:48;;;;;;;5.00;4.53;;;11.30;97.90;;;;;;940121;150;27380;-74
2021/12/14 02:23:14;;;;;;;5.17;4.40;;;11.30;97.80;;;;;;934195;151;27550;-74
2021/12/14 02:25:41;;;;;;;5.03;4.53;;;11.30;97.90;;;;;;941091;150;27325;-74
2021/12/14 02:28:08;;;;;;;5.30;4.33;;;11.30;97.90;;;;;;933466;149;27379;-74
2021/12/14 02:30:34;;;;;;;4.30;3.90;;;11.30;97.90;;;;;;941677;149;27274;-74
2021/12/14 02:33:01;;;;;;;4.87;4.40;;;11.30;97.90;;;;;;935330;152;27356;-74
2021/12/14 02:35:27;;;;;;;4.97;4.47;;;11.30;97.90;;;;;;926846;152;27429;-74
2021/12/14 02:37:54;;;;;;;4.77;4.37;;;11.40;98.00;;;;;;942047;149;27355;-74
2021/12/14 02:40:53;;;;;;;5.50;4.60;;;11.40;98.00;;;;;;941301;147;27479;-74
2021/12/14 02:42:59;;;;;;;4.93;4.53;;;11.40;98.00;;;;;;935739;152;27380;-74
2021/12/14 02:45:25;;;;;;;4.83;4.43;;;11.40;97.90;;;;;;940602;149;27371;-74
2021/12/14 02:47:52;;;;;;;6.97;4.57;;;11.40;98.00;;;;;;941394;152;27250;-74
2021/12/14 02:50:19;;;;;;;5.53;5.03;;;11.40;97.90;;;;;;942440;152;27890;-73
2021/12/14 02:52:45;;;;;;;4.90;4.50;;;11.40;97.80;;;;;;938158;150;27423;-74
2021/12/14 02:55:20;;;;;;;5.50;5.00;;;11.40;97.80;;;;;;938336;152;27742;-74
2021/12/14 02:57:47;;;;;;;4.50;4.10;;;11.40;97.80;;;;;;941236;152;27325;-74
2021/12/14 03:00:17;;;;;;;4.73;4.33;;;11.40;97.70;;;;;;941331;152;27380;-74
2021/12/14 03:02:43;;;;;;;4.67;4.27;;;11.40;97.60;;;;;;940969;152;27456;-74
2021/12/14 03:05:10;;;;;;;4.70;4.30;;;11.40;97.60;;;;;;941673;151;27324;-74
2021/12/14 03:07:38;;;;;;;4.90;4.40;;;11.40;97.60;;;;;;941909;149;27263;-74
2021/12/14 03:10:19;;;;;;;5.23;4.00;;;11.40;97.60;;;;;;940961;149;27340;-73
2021/12/14 03:12:35;;;;;;;4.43;4.00;;;11.30;97.60;;;;;;939204;152;27363;-73
2021/12/14 03:15:07;;;;;;;4.13;3.83;;;11.40;97.60;;;;;;944861;149;27412;-74
2021/12/14 03:17:34;;;;;;;4.50;4.10;;;11.40;97.60;;;;;;941030;151;27290;-73
2021/12/14 03:20:00;;;;;;;4.27;3.93;;;11.40;97.60;;;;;;941048;152;27419;-73
2021/12/14 03:22:36;;;;;;;5.13;4.63;;;11.40;97.70;;;;;;940519;151;27274;-73
2021/12/14 03:25:03;;;;;;;4.50;4.10;;;11.40;97.70;;;;;;941235;151;27433;-74
2021/12/14 03:27:29;;;;;;;4.57;4.03;;;11.40;97.70;;;;;;937755;151;27390;-74
2021/12/14 03:29:56;;;;;;;5.30;4.80;;;11.30;97.60;;;;;;942557;151;27353;-74
2021/12/14 03:32:22;;;;;;;5.10;4.60;;;11.30;97.60;;;;;;942391;151;27395;-73
2021/12/14 03:34:49;;;;;;;5.10;4.60;;;11.30;97.60;;;;;;942370;149;27267;-73
2021/12/14 03:37:16;;;;;;;5.40;4.90;;;11.30;97.60;;;;;;942382;152;27242;-74
2021/12/14 03:39:45;;;;;;;4.97;4.47;;;11.30;97.60;;;;;;944209;150;27435;-74
2021/12/14 03:42:11;;;;;;;5.67;5.17;;;11.30;97.60;;;;;;949753;150;27302;-74
2021/12/14 03:44:38;;;;;;;5.27;4.70;;;11.30;97.60;;;;;;948889;150;27274;-74
2021/12/14 03:47:07;;;;;;;5.50;4.70;;;11.30;97.60;;;;;;947888;151;27239;-74
2021/12/14 03:49:34;;;;;;;4.97;4.57;;;11.20;97.60;;;;;;950097;151;27986;-74
2021/12/14 03:52:00;;;;;;;4.83;4.43;;;11.20;97.60;;;;;;947845;150;27608;-74
2021/12/14 03:54:27;;;;;;;5.30;4.80;;;11.20;97.60;;;;;;947306;151;27740;-74
2021/12/14 03:56:53;;;;;;;5.00;4.60;;;11.20;97.60;;;;;;947726;151;27298;-74
2021/12/14 03:59:21;;;;;;;5.10;4.60;;;11.20;97.70;;;;;;950184;149;27936;-74
2021/12/14 04:01:46;;;;;;;4.90;4.50;;;11.10;97.80;;;;;;950260;150;27311;-74
2021/12/14 04:04:18;;;;;;;5.47;4.97;;;11.10;97.80;;;;;;949904;151;27266;-74
2021/12/14 04:06:42;;;;;;;5.10;4.60;;;11.10;97.80;;;;;;945757;151;27247;-74
2021/12/14 04:09:09;;;;;;;5.90;5.00;;;11.10;97.90;;;;;;942613;148;27331;-74
2021/12/14 04:11:35;;;;;;;5.20;4.70;;;11.10;97.90;;;;;;950041;148;27403;-74
2021/12/14 04:14:03;;;;;;;5.20;4.70;;;11.10;97.90;;;;;;952315;148;27589;-74
2021/12/14 04:16:29;;;;;;;5.77;5.27;;;11.10;97.90;;;;;;952041;148;27281;-74
2021/12/14 04:19:03;;;;;;;5.63;5.13;;;11.10;97.90;;;;;;949859;149;27244;-73
2021/12/14 04:21:25;;;;;;;5.90;4.87;;;11.10;97.90;;;;;;949557;150;27400;-73
2021/12/14 04:23:51;;;;;;;6.63;4.97;;;11.00;97.90;;;;;;950138;148;27284;-73
2021/12/14 04:26:18;;;;;;;5.13;4.73;;;11.00;97.90;;;;;;950474;150;27686;-73
2021/12/14 04:28:44;;;;;;;5.20;4.67;;;11.00;97.50;;;;;;947654;149;27300;-73
2021/12/14 04:31:11;;;;;;;5.10;4.67;;;11.00;97.90;;;;;;947155;151;27352;-73
2021/12/14 04:33:37;;;;;;;5.23;4.83;;;11.00;97.90;;;;;;938225;151;27382;-73
2021/12/14 04:36:04;;;;;;;4.53;4.13;;;11.00;97.90;;;;;;943621;151;27339;-73
2021/12/14 04:38:32;;;;;;;5.70;5.17;;;11.00;97.90;;;;;;965668;148;27372;-73
2021/12/14 04:51:58;;;;;;;6.53;5.57;;;10.90;98.00;;;;;;953327;150;27791;-74
2021/12/14 04:54:22;;;;;;;5.37;4.67;;;10.90;98.10;;;;;;954127;150;27240;-74
2021/12/14 04:56:49;;;;;;;5.87;5.37;;;10.90;97.90;;;;;;954959;149;27355;-74
2021/12/14 04:59:19;;;;;;;6.57;5.60;;;10.90;97.90;;;;;;953680;150;27296;-74
2021/12/14 05:01:45;;;;;;;5.93;5.43;;;10.90;97.90;;;;;;952479;151;27281;-74
2021/12/14 05:04:11;;;;;;;6.57;5.50;;;10.90;97.90;;;;;;952194;150;27297;-74
2021/12/14 05:06:47;;;;;;;5.77;5.27;;;10.90;98.00;;;;;;952407;150;27278;-73
2021/12/14 05:09:22;;;;;;;6.23;5.63;;;10.80;97.90;;;;;;954222;147;27306;-73
2021/12/14 05:11:46;;;;;;;6.10;5.50;;;10.80;97.90;;;;;;950817;149;27420;-74
2021/12/14 05:14:12;;;;;;;6.27;5.67;;;10.80;97.90;;;;;;953142;148;27347;-74
2021/12/14 05:16:39;;;;;;;5.93;5.33;;;10.80;98.00;;;;;;954502;147;27298;-74
2021/12/14 05:19:05;;;;;;;6.03;5.53;;;10.80;98.10;;;;;;954966;149;27318;-74
2021/12/14 05:21:38;;;;;;;5.97;5.37;;;10.80;98.10;;;;;;954300;149;27411;-74
2021/12/14 05:24:04;;;;;;;5.70;5.17;;;10.80;98.20;;;;;;954225;148;27291;-74
2021/12/14 05:26:31;;;;;;;5.47;4.97;;;10.80;98.20;;;;;;953072;150;27345;-74
2021/12/14 05:28:57;;;;;;;5.63;5.13;;;10.80;98.30;;;;;;952349;150;27732;-74
2021/12/14 05:31:24;;;;;;;5.67;5.10;;;10.80;98.10;;;;;;947900;150;27288;-74
2021/12/14 05:33:50;;;;;;;5.57;5.07;;;10.80;98.40;;;;;;954035;150;27374;-74
2021/12/14 05:36:17;;;;;;;6.70;6.10;;;10.80;98.40;;;;;;952925;150;27260;-74
2021/12/14 05:39:01;;;;;;;7.00;5.50;;;10.80;98.40;;;;;;953066;150;27225;-74
2021/12/14 05:44:09;;;;;;;6.17;5.57;;;10.80;98.30;;;;;;942076;150;27309;-74
2021/12/14 05:46:36;;;;;;;6.00;5.50;;;10.80;98.30;;;;;;940882;150;27351;-74
2021/12/14 05:49:02;;;;;;;6.03;5.43;;;10.80;98.30;;;;;;939859;152;27302;-74
2021/12/14 05:51:29;;;;;;;6.53;5.83;;;10.80;98.30;;;;;;940820;149;27306;-74
2021/12/14 05:53:55;;;;;;;6.30;5.70;;;10.80;98.30;;;;;;941357;152;27289;-74
2021/12/14 05:56:22;;;;;;;7.33;6.67;;;10.80;98.30;;;;;;942087;152;27355;-74
2021/12/14 05:58:49;;;;;;;5.80;5.03;;;10.90;98.30;;;;;;941699;149;27320;-74
2021/12/14 06:01:15;;;;;;;6.60;5.77;;;10.80;98.30;;;;;;941874;151;27265;-74
2021/12/14 06:03:42;;;;;;;6.17;5.63;;;10.90;98.30;;;;;;938364;151;27411;-74
2021/12/14 06:06:17;;;;;;;6.40;5.80;;;10.90;98.30;;;;;;940556;152;27249;-74
2021/12/14 06:08:44;;;;;;;6.37;5.77;;;10.90;98.30;;;;;;939205;152;27345;-74
2021/12/14 06:11:20;;;;;;;5.57;5.07;;;10.80;98.30;;;;;;947865;149;27384;-74
2021/12/14 06:13:46;;;;;;;5.87;5.37;;;10.90;98.40;;;;;;943026;149;27247;-74
2021/12/14 06:16:25;;;;;;;7.07;5.57;;;10.90;98.40;;;;;;940208;149;27370;-74
2021/12/14 06:18:54;;;;;;;6.17;5.67;;;10.90;98.40;;;;;;933614;152;27790;-74
2021/12/14 06:21:30;;;;;;;5.63;5.17;;;10.90;98.40;;;;;;927185;152;27302;-74
2021/12/14 06:24:05;;;;;;;6.27;5.67;;;10.90;98.30;;;;;;940076;152;27343;-74
2021/12/14 06:26:35;;;;;;;6.53;5.83;;;10.90;98.40;;;;;;935624;150;27289;-74
2021/12/14 06:29:11;;;;;;;7.93;6.33;;;10.90;98.40;;;;;;942016;149;27288;-73
2021/12/14 06:31:41;;;;;;;6.50;5.80;;;10.90;98.40;;;;;;942064;150;27235;-74
2021/12/14 06:34:15;;;;;;;7.20;5.77;;;10.90;98.40;;;;;;941669;151;27312;-74
2021/12/14 06:36:50;;;;;;;5.83;5.33;;;10.90;98.50;;;;;;941338;151;27288;-74
2021/12/14 06:39:14;;;;;;;7.00;6.30;;;10.90;98.50;;;;;;936396;151;27854;-74
2021/12/14 06:41:41;;;;;;;6.37;5.77;;;10.90;98.50;;;;;;938687;151;27309;-74
2021/12/14 06:44:10;;;;;;;7.40;6.70;;;11.00;98.50;;;;;;952077;148;27280;-74
2021/12/14 06:46:37;;;;;;;9.57;8.43;;;11.00;98.50;;;;;;954117;148;27409;-74
2021/12/14 06:49:09;;;;;;;8.90;8.03;;;11.00;98.40;;;;;;954831;147;27275;-74
2021/12/14 06:51:36;;;;;;;10.03;7.87;;;11.00;98.40;;;;;;948292;150;27718;-74
2021/12/14 06:54:02;;;;;;;10.00;8.63;;;11.00;98.40;;;;;;951002;150;27724;-74
2021/12/14 06:56:29;;;;;;;9.47;8.57;;;11.00;98.40;;;;;;951618;150;27361;-74
2021/12/14 06:58:55;;;;;;;10.70;9.60;;;11.00;98.40;;;;;;953344;149;27367;-74
2021/12/14 07:01:28;;;;;;;12.17;9.93;;;11.10;98.50;;;;;;954936;149;27244;-74
2021/12/14 07:03:57;;;;;;;11.93;10.73;;;11.10;98.50;;;;;;939206;150;27273;-74
2021/12/14 07:06:27;;;;;;;11.93;8.93;;;11.10;98.40;;;;;;950150;151;27256;-74
2021/12/14 07:08:53;;;;;;;10.57;9.23;;;11.10;98.40;;;;;;956707;148;27284;-74
2021/12/14 07:11:20;;;;;;;11.20;10.10;;;11.10;98.30;;;;;;961612;147;27281;-74
2021/12/14 07:13:46;;;;;;;11.07;9.47;;;11.10;98.30;;;;;;953588;150;27360;-74
2021/12/14 07:16:23;;;;;;;10.20;9.10;;;11.10;98.20;;;;;;955073;148;27306;-74
2021/12/14 07:18:51;;;;;;;10.50;9.40;;;11.10;98.20;;;;;;948451;150;27825;-74
2021/12/14 07:21:33;;;;;;;10.87;9.70;;;11.10;98.40;;;;;;948110;149;27280;-74
2021/12/14 07:24:00;;;;;;;10.80;9.10;;;11.10;98.20;;;;;;945581;150;27341;-75
2021/12/14 07:26:26;;;;;;;10.13;9.07;;;11.10;98.20;;;;;;950533;150;27310;-75
2021/12/14 07:28:53;;;;;;;12.97;9.60;;;11.10;98.20;;;;;;951367;150;27272;-75
2021/12/14 07:31:19;;;;;;;11.40;9.80;;;11.10;98.30;;;;;;953105;150;27395;-75
2021/12/14 07:33:49;;;;;;;12.40;11.10;;;11.10;98.20;;;;;;953654;150;27287;-75
2021/12/14 07:36:18;;;;;;;10.80;9.70;;;11.10;98.20;;;;;;954280;147;27233;-74
2021/12/14 07:38:57;;;;;;;11.50;10.30;;;11.10;98.20;;;;;;949708;148;27411;-74
2021/12/14 07:41:31;;;;;;;11.80;10.27;;;11.20;98.20;;;;;;947554;150;27369;-74
2021/12/14 07:44:03;;;;;;;12.10;10.83;;;11.10;98.20;;;;;;948069;149;27256;-75
2021/12/14 07:46:36;;;;;;;13.30;10.77;;;11.20;98.20;;;;;;951818;150;27320;-74
2021/12/14 07:49:08;;;;;;;14.43;12.30;;;11.20;98.30;;;;;;944510;150;27375;-73
2021/12/14 07:51:34;;;;;;;14.53;12.83;;;11.20;98.20;;;;;;947859;150;27349;-74
2021/12/14 07:54:13;;;;;;;14.93;13.23;;;11.20;98.20;;;;;;952272;150;27422;-74
2021/12/14 07:56:42;;;;;;;14.63;12.73;;;11.20;98.10;;;;;;937999;150;27382;-74
2021/12/14 07:59:18;;;;;;;15.30;13.70;;;11.20;98.10;;;;;;950414;150;27303;-74
2021/12/14 08:01:46;;;;;;;17.57;14.73;;;11.20;97.80;;;;;;955198;147;27306;-74
2021/12/14 08:04:12;;;;;;;16.03;14.33;;;11.20;98.10;;;;;;952821;150;27289;-74
2021/12/14 08:06:43;;;;;;;16.43;14.70;;;11.20;98.20;;;;;;954060;148;27286;-74
2021/12/14 08:09:11;;;;;;;16.27;14.53;;;11.20;98.20;;;;;;950761;147;27416;-74
2021/12/14 08:14:03;;;;;;;15.37;13.57;;;11.20;98.20;;;;;;951774;150;27377;-74
2021/12/14 08:16:42;;;;;;;15.33;13.63;;;11.20;98.20;;;;;;952614;150;27443;-74
2021/12/14 08:19:08;;;;;;;13.70;12.20;;;11.30;98.20;;;;;;950555;149;27234;-74
2021/12/14 08:21:35;;;;;;;14.63;13.07;;;11.30;98.20;;;;;;952837;150;27262;-74
2021/12/14 08:24:04;;;;;;;14.97;12.60;;;11.30;98.10;;;;;;954630;148;27307;-74
2021/12/14 08:26:46;;;;;;;15.20;13.10;;;11.30;98.10;;;;;;953042;149;27394;-74
2021/12/14 08:29:15;;;;;;;14.70;12.53;;;11.40;98.10;;;;;;954397;148;27283;-74
2021/12/14 08:31:42;;;;;;;13.43;12.13;;;11.40;98.00;;;;;;953830;150;27289;-74
2021/12/14 08:34:11;;;;;;;14.27;12.37;;;11.40;98.00;;;;;;955104;148;27301;-74
2021/12/14 08:36:38;;;;;;;15.97;11.83;;;11.40;98.00;;;;;;937616;152;27319;-74
2021/12/14 08:39:11;;;;;;;14.00;12.40;;;11.40;97.90;;;;;;941461;150;27411;-74
2021/12/14 08:41:42;;;;;;;13.13;11.83;;;11.50;97.90;;;;;;954822;149;27294;-74
2021/12/14 08:44:10;;;;;;;14.27;12.73;;;11.50;97.80;;;;;;943863;149;27430;-74
2021/12/14 08:46:30;;;;;;;13.50;12.10;;;11.60;97.70;;;;;;935687;152;27401;-74
2021/12/14 08:48:56;;;;;;;14.70;13.13;;;11.60;97.70;;;;;;941894;149;27294;-74
2021/12/14 08:51:29;;;;;;;13.93;12.43;;;11.60;97.60;;;;;;940805;152;27317;-74
2021/12/14 08:54:01;;;;;;;14.37;12.53;;;11.60;97.60;;;;;;940230;152;27296;-74
2021/12/14 08:56:28;;;;;;;14.20;12.70;;;11.70;97.50;;;;;;933280;152;27311;-74
2021/12/14 08:58:54;;;;;;;13.50;12.10;;;11.70;97.40;;;;;;929965;152;27382;-74
2021/12/14 09:01:21;;;;;;;14.33;12.83;;;11.70;97.30;;;;;;941314;151;27367;-74
2021/12/14 09:03:50;;;;;;;14.77;13.33;;;11.70;97.30;;;;;;940587;149;27364;-74
2021/12/14 09:06:14;;;;;;;15.00;13.20;;;11.70;97.30;;;;;;940640;151;27348;-74
2021/12/14 09:08:41;;;;;;;17.23;12.73;;;11.80;97.20;;;;;;940069;151;27295;-74
2021/12/14 09:11:07;;;;;;;14.47;12.87;;;11.80;97.00;;;;;;942778;149;27314;-74
2021/12/14 09:13:34;;;;;;;15.07;13.50;;;11.80;97.00;;;;;;940220;152;27353;-74
2021/12/14 09:16:04;;;;;;;13.90;12.50;;;11.80;96.90;;;;;;940518;152;27375;-74
2021/12/14 09:18:30;;;;;;;14.10;12.60;;;11.80;97.00;;;;;;940375;152;27897;-74
2021/12/14 09:20:56;;;;;;;13.27;11.93;;;11.80;96.90;;;;;;940392;151;27259;-74
2021/12/14 09:23:23;;;;;;;13.30;11.90;;;11.90;96.90;;;;;;940559;152;27285;-74
2021/12/14 09:25:50;;;;;;;16.20;13.37;;;11.90;97.10;;;;;;940994;151;27445;-74
2021/12/14 09:28:17;;;;;;;15.57;13.93;;;11.90;96.80;;;;;;941355;151;27270;-74
2021/12/14 09:30:44;;;;;;;13.77;12.37;;;11.90;96.80;;;;;;941464;151;27329;-74
2021/12/14 09:33:09;;;;;;;14.40;13.00;;;11.90;96.80;;;;;;939643;152;27476;-74
2021/12/14 09:35:36;;;;;;;14.30;12.47;;;12.00;96.90;;;;;;940532;151;27298;-74
2021/12/14 09:38:05;;;;;;;14.27;12.40;;;12.00;96.80;;;;;;941363;151;27267;-74
2021/12/14 09:40:41;;;;;;;14.73;12.87;;;12.00;96.70;;;;;;941261;152;27859;-74
2021/12/14 09:43:07;;;;;;;13.83;12.43;;;12.00;96.60;;;;;;941392;151;27533;-74
2021/12/14 09:45:34;;;;;;;13.60;12.20;;;12.00;96.40;;;;;;948671;151;27278;-74
2021/12/14 09:48:01;;;;;;;17.27;13.30;;;12.00;96.20;;;;;;946795;148;27303;-74
2021/12/14 09:50:27;;;;;;;14.47;12.83;;;12.00;96.20;;;;;;954821;148;27297;-74
2021/12/14 09:52:54;;;;;;;14.70;12.70;;;12.00;96.20;;;;;;949143;151;27241;-74
2021/12/14 09:55:23;;;;;;;14.57;13.07;;;12.00;96.20;;;;;;949784;151;27347;-74
2021/12/14 09:57:55;;;;;;;13.67;12.23;;;12.00;96.30;;;;;;948347;148;27272;-74
2021/12/14 10:00:28;;;;;;;14.53;13.03;;;11.90;96.20;;;;;;949378;151;27311;-74
2021/12/14 10:02:54;;;;;;;16.80;13.53;;;11.90;96.20;;;;;;949733;151;27284;-74
2021/12/14 10:05:21;;;;;;;14.90;13.23;;;11.90;96.20;;;;;;950174;150;27312;-74
2021/12/14 10:07:49;;;;;;;15.77;12.87;;;11.80;96.20;;;;;;948854;151;27306;-74
2021/12/14 10:10:17;;;;;;;18.30;14.57;;;11.80;96.40;;;;;;947872;151;27340;-74
2021/12/14 10:12:49;;;;;;;18.87;14.50;;;11.80;96.60;;;;;;949022;151;27378;-74
2021/12/14 10:15:34;;;;;;;17.83;14.67;;;11.80;96.80;;;;;;949759;151;27330;-74
2021/12/14 10:18:00;;;;;;;16.93;14.90;;;11.80;96.90;;;;;;948577;151;27382;-74
2021/12/14 10:20:30;;;;;;;20.70;15.50;;;11.70;97.00;;;;;;948935;148;27336;-74
2021/12/14 10:22:56;;;;;;;18.77;15.03;;;11.70;97.10;;;;;;949432;151;27270;-74
2021/12/14 10:25:23;;;;;;;17.30;14.97;;;11.70;97.10;;;;;;949923;150;27299;-74
2021/12/14 10:27:50;;;;;;;16.70;14.37;;;11.70;97.10;;;;;;949569;151;27293;-74
2021/12/14 10:30:16;;;;;;;16.57;14.77;;;11.70;97.10;;;;;;948758;151;27266;-74
2021/12/14 10:32:46;;;;;;;18.87;15.37;;;11.70;97.10;;;;;;948055;148;27264;-74
2021/12/14 10:35:16;;;;;;;19.50;15.00;;;11.70;97.20;;;;;;942887;149;27276;-74
2021/12/14 10:38:12;;;;;;;17.57;14.67;;;11.70;97.20;;;;;;949696;151;27733;-74
2021/12/14 10:43:15;;;;;;;18.67;14.47;;;11.60;97.20;;;;;;950148;151;27426;-74
2021/12/14 10:45:43;;;;;;;16.90;14.87;;;11.60;97.20;;;;;;936707;149;27423;-74
2021/12/14 10:48:09;;;;;;;19.87;15.13;;;11.60;97.40;;;;;;942234;149;27338;-74
2021/12/14 10:50:36;;;;;;;18.97;15.43;;;11.60;97.50;;;;;;942463;149;27324;-74
2021/12/14 10:53:03;;;;;;;19.07;15.47;;;11.60;97.60;;;;;;942204;151;27301;-74
2021/12/14 10:55:34;;;;;;;20.67;15.53;;;11.60;97.60;;;;;;938957;151;27367;-74
2021/12/14 10:57:59;;;;;;;24.57;16.20;;;11.60;97.60;;;;;;940481;152;27271;-74
2021/12/14 11:00:33;;;;;;;22.63;17.70;;;11.60;97.60;;;;;;940754;151;27261;-74
2021/12/14 11:03:02;;;;;;;21.67;15.43;;;11.60;97.70;;;;;;941240;151;27369;-74
2021/12/14 11:05:27;;;;;;;22.17;16.27;;;11.60;97.80;;;;;;941813;151;27327;-74
2021/12/14 11:07:53;;;;;;;20.93;15.77;;;11.60;97.90;;;;;;940387;152;27293;-74
2021/12/14 11:10:26;;;;;;;21.60;15.90;;;11.60;97.90;;;;;;944713;150;27290;-74
2021/12/14 11:12:55;;;;;;;17.50;15.60;;;11.70;97.90;;;;;;940488;152;27216;-74
2021/12/14 11:15:22;;;;;;;17.73;14.83;;;11.70;97.90;;;;;;939511;152;27370;-74
2021/12/14 11:20:33;;;;;;;17.53;14.27;;;11.80;97.80;;;;;;942112;152;27313;-74
2021/12/14 11:23:00;;;;;;;19.87;15.30;;;11.80;97.80;;;;;;940506;151;27263;-74
2021/12/14 11:25:26;;;;;;;18.77;15.20;;;11.80;97.90;;;;;;941581;151;27345;-74
2021/12/14 11:27:55;;;;;;;20.93;15.83;;;11.80;97.80;;;;;;940709;151;27340;-74
2021/12/14 11:30:22;;;;;;;18.50;15.53;;;11.90;97.80;;;;;;940755;149;27327;-74
2021/12/14 11:33:00;;;;;;;16.87;14.57;;;11.90;97.70;;;;;;939405;152;27304;-74
2021/12/14 11:35:29;;;;;;;18.83;14.70;;;11.90;97.60;;;;;;930529;152;27331;-74
2021/12/14 11:37:56;;;;;;;18.57;15.10;;;12.00;97.60;;;;;;942087;149;27306;-74
2021/12/14 11:40:23;;;;;;;20.97;14.80;;;12.00;97.60;;;;;;936594;152;27753;-74
2021/12/14 11:42:49;;;;;;;19.27;15.00;;;12.00;97.50;;;;;;941764;151;27596;-74
2021/12/14 11:45:17;;;;;;;17.77;14.30;;;12.00;97.70;;;;;;942038;151;27425;-74
2021/12/14 11:47:48;;;;;;;19.23;15.03;;;12.00;97.20;;;;;;941893;150;27321;-74
2021/12/14 11:50:31;;;;;;;17.70;14.90;;;12.00;97.00;;;;;;941145;149;27234;-74
2021/12/14 11:53:02;;;;;;;17.03;14.33;;;12.00;96.90;;;;;;954129;148;27295;-74
2021/12/14 11:55:50;;;;;;;17.80;14.60;;;12.00;96.90;;;;;;940538;152;27335;-74
2021/12/14 11:58:28;;;;;;;16.13;13.07;;;11.90;96.90;;;;;;941762;152;27293;-74
2021/12/14 12:01:04;;;;;;;16.30;12.93;;;11.90;97.00;;;;;;940986;152;27320;-74
2021/12/14 12:03:40;;;;;;;16.47;13.57;;;11.90;97.10;;;;;;941752;152;27262;-74
2021/12/14 12:11:33;;;;;;;16.97;14.83;;;11.90;97.20;;;;;;940155;149;27323;-74
2021/12/14 12:13:59;;;;;;;18.63;13.43;;;11.90;97.20;;;;;;939288;152;27294;-74
2021/12/14 12:16:28;;;;;;;17.67;14.57;;;11.90;97.30;;;;;;939242;152;27753;-74
2021/12/14 12:19:06;;;;;;;15.53;12.97;;;11.90;97.30;;;;;;940510;151;27880;-75
2021/12/14 12:21:36;;;;;;;19.33;13.90;;;11.90;97.20;;;;;;936765;152;27330;-74
2021/12/14 12:24:03;;;;;;;20.73;15.00;;;11.90;97.10;;;;;;941232;151;27787;-74
2021/12/14 12:26:30;;;;;;;20.43;14.90;;;11.90;97.10;;;;;;940828;150;27351;-74
2021/12/14 12:29:01;;;;;;;17.97;15.07;;;11.90;97.10;;;;;;940945;149;27335;-75
2021/12/14 12:31:22;;;;;;;19.80;14.83;;;11.90;97.10;;;;;;939524;152;27245;-75
2021/12/14 12:33:55;;;;;;;19.80;16.77;;;11.90;97.10;;;;;;926399;155;27361;-75
2021/12/14 12:36:37;;;;;;;21.23;16.70;;;11.90;97.00;;;;;;937585;152;27291;-76
2021/12/14 12:39:15;;;;;;;20.90;16.47;;;11.90;97.00;;;;;;933150;152;27295;-74
2021/12/14 12:41:48;;;;;;;18.93;15.80;;;12.00;97.10;;;;;;940028;152;27384;-74
2021/12/14 12:44:16;;;;;;;19.80;15.90;;;11.90;97.10;;;;;;938285;150;27743;-74
2021/12/14 12:46:43;;;;;;;19.30;15.97;;;11.90;97.10;;;;;;934422;152;27753;-74
2021/12/14 12:49:09;;;;;;;18.70;15.23;;;11.90;97.10;;;;;;938133;149;27732;-74
2021/12/14 12:51:36;;;;;;;22.17;16.70;;;12.00;97.20;;;;;;936519;152;27290;-74
2021/12/14 12:54:17;;;;;;;18.43;15.70;;;12.00;97.40;;;;;;937206;152;27263;-74
2021/12/14 12:56:44;;;;;;;20.23;15.10;;;11.90;97.10;;;;;;935260;152;27446;-74
2021/12/14 12:59:10;;;;;;;19.70;15.67;;;12.00;97.00;;;;;;934883;152;27295;-74
2021/12/14 13:01:37;;;;;;;20.57;16.30;;;12.00;97.00;;;;;;941175;152;27277;-74
2021/12/14 13:04:04;;;;;;;20.20;15.97;;;12.00;96.90;;;;;;937964;152;27414;-74
2021/12/14 13:06:30;;;;;;;19.40;15.20;;;12.00;96.90;;;;;;940927;152;27317;-74
2021/12/14 13:08:58;;;;;;;19.43;15.67;;;12.00;96.90;;;;;;942264;150;27320;-74
2021/12/14 13:11:23;;;;;;;22.43;15.87;;;12.00;96.90;;;;;;941843;151;27349;-74
2021/12/14 13:13:59;;;;;;;20.53;15.20;;;12.00;97.00;;;;;;941621;151;27315;-74
2021/12/14 13:16:28;;;;;;;22.93;16.10;;;12.00;97.00;;;;;;939389;149;27336;-74